Tim Quigg — WDB6570 — position and weather

sailwx.info

Track history (hours):
 
Tides and Currents Weather Stations Pressure Air Temp Water Temp Dewpoint Dewpoint Depression Visibility Wind Speed Wind Dir Waves Ship Positions

Tim Quigg

Owner: Harley Marine Services, Inc, Seattle, WA. More information available from US FCC via Universal Licensing System and Coast Guard Vessel Documentation Center.

Last reported at 2018-Feb-20 03:30 UTC. Time now 2018-Feb-20 03:57 UTC.
Position N 33°46' W 118°13'.

; draft 4.4 m.

Type: Tug. MMSI: 366926740.

Date/timePositionNaut miles runAvg speedWind from/ knotsBaromVisibWave heightAir tempDewpointWater temp
2018-Feb-20 03:30N 33°46' W 118°13'1 2.5
2018-Feb-20 03:00N 33°45' W 118°13'1 1.0
2018-Feb-20 02:24N 33°46' W 118°13'0 0.3
2018-Feb-20 02:00N 33°45' W 118°13'0 0.0
2018-Feb-20 01:30N 33°45' W 118°13'2 4.0
2018-Feb-20 01:00N 33°46' W 118°15'1 1.9
2018-Feb-20 00:29N 33°45' W 118°16'2 3.7
2018-Feb-20 00:00N 33°44' W 118°16'1 2.7
2018-Feb-19 23:30N 33°43' W 118°15'1 2.3
2018-Feb-19 23:00N 33°44' W 118°15'0 0.1
2018-Feb-19 22:30N 33°44' W 118°15'1 1.6
2018-Feb-19 22:00N 33°43' W 118°16'1 1.6
2018-Feb-19 21:30N 33°44' W 118°16'0 0.0
2018-Feb-19 21:00N 33°44' W 118°16'0 0.0
2018-Feb-19 20:30N 33°44' W 118°16'0 0.0
2018-Feb-19 19:59N 33°44' W 118°16'0 0.0
2018-Feb-19 19:30N 33°44' W 118°16'0 0.0
2018-Feb-19 19:00N 33°44' W 118°16'0 0.0
2018-Feb-19 18:30N 33°44' W 118°16'0 0.0
2018-Feb-19 18:00N 33°44' W 118°16'0 0.0
2018-Feb-19 17:30N 33°44' W 118°16'0 0.0
2018-Feb-19 17:00N 33°44' W 118°16'0 0.0
2018-Feb-19 16:30N 33°44' W 118°16'0 0.0
2018-Feb-19 16:00N 33°44' W 118°16'2 3.2
2018-Feb-19 15:30N 33°43' W 118°14'2 3.9
2018-Feb-19 15:00N 33°45' W 118°12'1 2.7
2018-Feb-19 14:30N 33°44' W 118°11'0 0.2
2018-Feb-19 13:58N 33°44' W 118°11'0 0.5
2018-Feb-19 13:29N 33°44' W 118°12'1 2.1
2018-Feb-19 12:58N 33°45' W 118°12'0 0.2
2018-Feb-19 12:20N 33°45' W 118°12'0 0.5
2018-Feb-19 12:00N 33°45' W 118°12'0 0.9
2018-Feb-19 11:30N 33°44' W 118°12'3 5.6
2018-Feb-19 11:00N 33°44' W 118°16'0 0.0
2018-Feb-19 10:30N 33°44' W 118°16'0 0.0
2018-Feb-19 10:00N 33°44' W 118°16'0 0.0
2018-Feb-19 09:30N 33°44' W 118°16'0 0.0
2018-Feb-19 09:00N 33°44' W 118°16'0 0.0
2018-Feb-19 08:30N 33°44' W 118°16'0 0.0
2018-Feb-19 08:00N 33°44' W 118°16'0 0.0
2018-Feb-19 07:30N 33°44' W 118°16'0 0.0
2018-Feb-19 07:00N 33°44' W 118°16'0 0.0
2018-Feb-19 06:30N 33°44' W 118°16'0 0.0
2018-Feb-19 06:00N 33°44' W 118°16'0 0.0
2018-Feb-19 05:30N 33°44' W 118°16'0 0.0
2018-Feb-19 05:00N 33°44' W 118°16'0 0.0
2018-Feb-19 04:30N 33°44' W 118°16'0 0.0
2018-Feb-19 04:00N 33°44' W 118°16'0 0.0
2018-Feb-19 03:30N 33°44' W 118°16'0 0.3
2018-Feb-19 03:00N 33°44' W 118°16'2 4.7
2018-Feb-19 02:30N 33°43' W 118°13'1 1.3
2018-Feb-19 01:51N 33°44' W 118°12'0 0.0
2018-Feb-19 01:30N 33°44' W 118°12'0 0.3
2018-Feb-19 01:01N 33°44' W 118°12'3 5.5
2018-Feb-19 00:30N 33°46' W 118°14'1 2.3
2018-Feb-19 00:00N 33°45' W 118°13'2 4.1
2018-Feb-18 23:30N 33°43' W 118°13'2 4.1
2018-Feb-18 23:00N 33°44' W 118°16'0 0.0
2018-Feb-18 22:30N 33°44' W 118°16'0 0.0
2018-Feb-18 22:00N 33°44' W 118°16'0 0.0
2018-Feb-18 21:30N 33°44' W 118°16'0 0.0
2018-Feb-18 21:00N 33°44' W 118°16'0 0.0
2018-Feb-18 20:30N 33°44' W 118°16'0 0.0
2018-Feb-18 20:00N 33°44' W 118°16'0 0.0
2018-Feb-18 19:30N 33°44' W 118°16'0 0.0
2018-Feb-18 19:00N 33°44' W 118°16'0 0.0
2018-Feb-18 18:30N 33°44' W 118°16'0 0.0
2018-Feb-18 18:00N 33°44' W 118°16'0 0.0
2018-Feb-18 17:30N 33°44' W 118°16'0 0.0
2018-Feb-18 17:00N 33°44' W 118°16'0 0.0
2018-Feb-18 16:30N 33°44' W 118°16'0 0.4
2018-Feb-18 16:00N 33°44' W 118°15'1 1.5
2018-Feb-18 15:30N 33°43' W 118°16'1 1.8
2018-Feb-18 15:01N 33°43' W 118°15'1 2.6
2018-Feb-18 14:30N 33°44' W 118°16'0 0.0
2018-Feb-18 14:00N 33°44' W 118°16'0 0.0
2018-Feb-18 13:30N 33°44' W 118°16'0 0.0
2018-Feb-18 13:00N 33°44' W 118°16'0 0.0
2018-Feb-18 12:30N 33°44' W 118°16'0 0.0
2018-Feb-18 12:00N 33°44' W 118°16'0 0.0
2018-Feb-18 11:30N 33°44' W 118°16'0 0.0
2018-Feb-18 11:00N 33°44' W 118°16'0 0.0
2018-Feb-18 10:30N 33°44' W 118°16'0 0.0
2018-Feb-18 10:00N 33°44' W 118°16'0 0.0
2018-Feb-18 09:30N 33°44' W 118°16'0 0.0
2018-Feb-18 09:00N 33°44' W 118°16'0 0.0
2018-Feb-18 08:30N 33°44' W 118°16'0 0.0
2018-Feb-18 08:00N 33°44' W 118°16'0 0.0
2018-Feb-18 07:30N 33°44' W 118°16'0 0.0
2018-Feb-18 07:00N 33°44' W 118°16'0 0.0
2018-Feb-18 06:30N 33°44' W 118°16'0 0.0
2018-Feb-18 06:00N 33°44' W 118°16'0 0.0
2018-Feb-18 05:30N 33°44' W 118°16'0 0.0
2018-Feb-18 05:00N 33°44' W 118°16'0 0.0
2018-Feb-18 04:30N 33°44' W 118°16'0 0.0
2018-Feb-18 04:00N 33°44' W 118°16'0 0.0
2018-Feb-18 03:30N 33°44' W 118°16'1 2.0
2018-Feb-18 03:00N 33°44' W 118°17'2 3.2
2018-Feb-18 02:30N 33°46' W 118°15'0 0.2
2018-Feb-18 02:00N 33°46' W 118°16'0 0.0
2018-Feb-18 01:30N 33°46' W 118°16'2 4.9
2018-Feb-18 01:00N 33°45' W 118°13'1 1.6
2018-Feb-18 00:30N 33°45' W 118°12'1 1.2
2018-Feb-18 00:00N 33°44' W 118°12'1 3.0
2018-Feb-17 23:30N 33°44' W 118°11'3 6.5
2018-Feb-17 23:00N 33°43' W 118°15'1 2.5
2018-Feb-17 22:30N 33°44' W 118°16'0 0.0
2018-Feb-17 22:00N 33°44' W 118°16'0 0.0
2018-Feb-17 21:30N 33°44' W 118°16'0 0.0
2018-Feb-17 21:00N 33°44' W 118°16'0 0.0
2018-Feb-17 20:30N 33°44' W 118°16'0 0.0
2018-Feb-17 20:00N 33°44' W 118°16'0 0.0
2018-Feb-17 19:30N 33°44' W 118°16'0 0.0
2018-Feb-17 19:00N 33°44' W 118°16'0 0.0
2018-Feb-17 18:30N 33°44' W 118°16'0 0.0
2018-Feb-17 18:00N 33°44' W 118°16'0 0.0
2018-Feb-17 17:30N 33°44' W 118°16'0 0.0
2018-Feb-17 17:00N 33°44' W 118°16'0 0.0
2018-Feb-17 16:30N 33°44' W 118°16'0 0.0
2018-Feb-17 16:00N 33°44' W 118°16'0 0.0
2018-Feb-17 15:30N 33°44' W 118°16'0 0.0
2018-Feb-17 15:00N 33°44' W 118°16'0 0.0
2018-Feb-17 14:30N 33°44' W 118°16'0 0.0
2018-Feb-17 14:00N 33°44' W 118°16'0 0.0
2018-Feb-17 13:30N 33°44' W 118°16'0 0.0
2018-Feb-17 13:00N 33°44' W 118°16'0 0.0
2018-Feb-17 12:30N 33°44' W 118°16'0 0.0
2018-Feb-17 12:00N 33°44' W 118°16'0 0.0
2018-Feb-17 11:30N 33°44' W 118°16'0 0.0
2018-Feb-17 11:00N 33°44' W 118°16'0 0.0
2018-Feb-17 10:30N 33°44' W 118°16'0 0.0
2018-Feb-17 10:00N 33°44' W 118°16'0 0.0
2018-Feb-17 09:30N 33°44' W 118°16'0 0.0
2018-Feb-17 09:00N 33°44' W 118°16'0 0.0
2018-Feb-17 08:30N 33°44' W 118°16'0 0.0
2018-Feb-17 08:00N 33°44' W 118°16'0 0.0
2018-Feb-17 07:30N 33°44' W 118°16'0 0.0
2018-Feb-17 07:00N 33°44' W 118°16'0 0.0
2018-Feb-17 06:30N 33°44' W 118°16'0 0.0
2018-Feb-17 06:00N 33°44' W 118°16'0 0.0
2018-Feb-17 05:30N 33°44' W 118°16'0 0.0
2018-Feb-17 05:00N 33°44' W 118°16'0 0.0
2018-Feb-17 04:30N 33°44' W 118°16'0 0.0
2018-Feb-17 04:00N 33°44' W 118°16'0 0.0
2018-Feb-17 03:30N 33°44' W 118°16'0 0.0
2018-Feb-17 03:00N 33°44' W 118°16'0 0.0
2018-Feb-17 02:30N 33°44' W 118°16'0 0.0
2018-Feb-17 02:00N 33°44' W 118°16'0 0.0
2018-Feb-17 01:30N 33°44' W 118°16'0 0.0
2018-Feb-17 01:00N 33°44' W 118°16'0 0.0
2018-Feb-17 00:30N 33°44' W 118°16'0 0.0
2018-Feb-17 00:00N 33°44' W 118°16'0 0.0
2018-Feb-16 23:30N 33°44' W 118°16'0 0.0
2018-Feb-16 23:00N 33°44' W 118°16'0 0.0
2018-Feb-16 22:30N 33°44' W 118°16'0 0.0
2018-Feb-16 22:00N 33°44' W 118°16'0 0.0
2018-Feb-16 21:30N 33°44' W 118°16'0 0.0
2018-Feb-16 21:00N 33°44' W 118°16'0 0.0
2018-Feb-16 20:30N 33°44' W 118°16'0 0.0
2018-Feb-16 20:00N 33°44' W 118°16'0 0.0
2018-Feb-16 19:30N 33°44' W 118°16'1 2.8
2018-Feb-16 19:00N 33°43' W 118°14'4 8.8
2018-Feb-16 18:30N 33°44' W 118°09'3 6.0
2018-Feb-16 18:00N 33°44' W 118°06'1 1.6
2018-Feb-16 17:31N 33°44' W 118°06'5 9.9
2018-Feb-16 17:00N 33°44' W 118°12'2 3.1
2018-Feb-16 16:30N 33°45' W 118°13'0 0.0
2018-Feb-16 16:00N 33°45' W 118°13'2 4.3
2018-Feb-16 15:30N 33°43' W 118°13'2 4.1
2018-Feb-16 15:00N 33°44' W 118°16'0 0.4
2018-Feb-16 14:30N 33°44' W 118°16'1 1.4
2018-Feb-16 13:59N 33°44' W 118°15'1 2.5
2018-Feb-16 13:30N 33°44' W 118°16'2 3.3
2018-Feb-16 13:00N 33°45' W 118°17'1 2.4
2018-Feb-16 12:30N 33°44' W 118°17'1 1.5
2018-Feb-16 12:00N 33°44' W 118°16'0 0.0
2018-Feb-16 11:30N 33°44' W 118°16'0 0.0
2018-Feb-16 11:00N 33°44' W 118°16'0 0.0
2018-Feb-16 10:30N 33°44' W 118°16'0 0.0
2018-Feb-16 10:00N 33°44' W 118°16'0 0.0
2018-Feb-16 09:30N 33°44' W 118°16'0 0.0
2018-Feb-16 09:00N 33°44' W 118°16'0 0.0
2018-Feb-16 08:30N 33°44' W 118°16'0 0.0
2018-Feb-16 08:00N 33°44' W 118°16'0 0.0
2018-Feb-16 07:30N 33°44' W 118°16'0 0.0
2018-Feb-16 07:00N 33°44' W 118°16'0 0.0
2018-Feb-16 06:30N 33°44' W 118°16'0 0.0
2018-Feb-16 06:00N 33°44' W 118°16'0 0.0
2018-Feb-16 05:30N 33°44' W 118°16'0 0.0
2018-Feb-16 05:00N 33°44' W 118°16'0 0.0
2018-Feb-16 04:30N 33°44' W 118°16'0 0.0
2018-Feb-16 04:00N 33°44' W 118°16'0 0.0
2018-Feb-16 03:30N 33°44' W 118°16'0 0.0
2018-Feb-16 03:00N 33°44' W 118°16'0 0.0
2018-Feb-16 02:30N 33°44' W 118°16'0 0.0
2018-Feb-16 02:00N 33°44' W 118°16'0 0.0
2018-Feb-16 01:30N 33°44' W 118°16'0 0.0
2018-Feb-16 01:00N 33°44' W 118°16'0 0.0
2018-Feb-16 00:30N 33°44' W 118°16'0 0.0
2018-Feb-16 00:00N 33°44' W 118°16'0 0.0
2018-Feb-15 23:30N 33°44' W 118°16'0 0.0
2018-Feb-15 23:00N 33°44' W 118°16'0 0.0
2018-Feb-15 22:30N 33°44' W 118°16'0 0.0
2018-Feb-15 22:00N 33°44' W 118°16'0 0.0
2018-Feb-15 21:30N 33°44' W 118°16'1 1.8
2018-Feb-15 21:01N 33°44' W 118°17'1 2.8
2018-Feb-15 20:30N 33°46' W 118°16'0 0.1
2018-Feb-15 20:00N 33°46' W 118°16'0 0.7
2018-Feb-15 19:30N 33°45' W 118°16'2 4.4
2018-Feb-15 19:01N 33°43' W 118°16'3 6.1
2018-Feb-15 18:30N 33°43' W 118°12'3 6.3
2018-Feb-15 18:00N 33°44' W 118°16'0 0.0
2018-Feb-15 17:30N 33°44' W 118°16'0 0.0
2018-Feb-15 17:00N 33°44' W 118°16'1 2.0
2018-Feb-15 16:30N 33°43' W 118°15'2 4.4
2018-Feb-15 16:00N 33°44' W 118°13'3 5.1
2018-Feb-15 15:30N 33°43' W 118°16'3 5.6
2018-Feb-15 15:00N 33°46' W 118°16'2 3.2
2018-Feb-15 14:30N 33°44' W 118°17'1 1.8
2018-Feb-15 14:00N 33°44' W 118°16'0 0.0
2018-Feb-15 13:30N 33°44' W 118°16'1 2.9
2018-Feb-15 13:00N 33°45' W 118°16'1 1.0
2018-Feb-15 12:30N 33°46' W 118°15'2 3.7
2018-Feb-15 12:00N 33°44' W 118°17'2 3.6
2018-Feb-15 11:30N 33°43' W 118°15'1 2.4
2018-Feb-15 11:00N 33°44' W 118°16'0 0.0
2018-Feb-15 10:30N 33°44' W 118°16'0 0.0
2018-Feb-15 10:00N 33°44' W 118°16'0 0.0
2018-Feb-15 09:30N 33°44' W 118°16'0 0.0
2018-Feb-15 09:00N 33°44' W 118°16'0 0.0
2018-Feb-15 08:30N 33°44' W 118°16'3 4.9
2018-Feb-15 07:59N 33°44' W 118°13'1 1.1
2018-Feb-15 07:29N 33°44' W 118°12'3 5.4
2018-Feb-15 06:58N 33°43' W 118°15'1 2.1
2018-Feb-15 06:30N 33°44' W 118°16'0 0.0
2018-Feb-15 06:00N 33°44' W 118°16'0 0.0
2018-Feb-15 05:30N 33°44' W 118°16'0 0.0
2018-Feb-15 05:00N 33°44' W 118°16'0 0.0
2018-Feb-15 04:30N 33°44' W 118°16'0 0.0
2018-Feb-15 04:00N 33°44' W 118°16'0 0.0
2018-Feb-15 03:30N 33°44' W 118°16'1 1.3
2018-Feb-15 03:00N 33°43' W 118°16'2 4.8
2018-Feb-15 02:30N 33°46' W 118°16'0 0.2
2018-Feb-15 02:00N 33°46' W 118°15'2 3.5
2018-Feb-15 01:31N 33°44' W 118°17'1 1.5
2018-Feb-15 01:00N 33°44' W 118°16'0 0.0
2018-Feb-15 00:30N 33°44' W 118°16'0 0.0
2018-Feb-15 00:00N 33°44' W 118°16'0 0.0
2018-Feb-14 23:30N 33°44' W 118°16'0 0.0
2018-Feb-14 23:00N 33°44' W 118°16'0 0.1
2018-Feb-14 22:30N 33°44' W 118°16'2 4.3
2018-Feb-14 22:00N 33°46' W 118°16'0 0.9
2018-Feb-14 21:30N 33°45' W 118°16'0 0.0
2018-Feb-14 20:11N 33°45' W 118°16'0 0.0
2018-Feb-14 20:00N 33°45' W 118°16'0 0.0
2018-Feb-14 19:30N 33°45' W 118°16'0 0.0
2018-Feb-14 19:01N 33°45' W 118°16'0 0.0
2018-Feb-14 18:31N 33°45' W 118°16'0 0.0
2018-Feb-14 18:00N 33°45' W 118°16'0 0.5
2018-Feb-14 17:31N 33°46' W 118°15'1 2.1
2018-Feb-14 17:01N 33°46' W 118°14'0 0.2
2018-Feb-14 16:31N 33°46' W 118°14'2 4.3
2018-Feb-14 16:01N 33°44' W 118°12'0 0.3
2018-Feb-14 15:30N 33°45' W 118°12'3 5.6
2018-Feb-14 15:01N 33°44' W 118°16'0 0.0
2018-Feb-14 14:31N 33°44' W 118°16'0 0.9
2018-Feb-14 14:00N 33°43' W 118°16'1 2.9
2018-Feb-14 13:30N 33°45' W 118°16'0 0.6
2018-Feb-14 13:00N 33°45' W 118°16'3 4.9
2018-Feb-14 12:28N 33°43' W 118°15'1 2.9
2018-Feb-14 12:00N 33°44' W 118°16'0 0.0
2018-Feb-14 11:29N 33°44' W 118°16'0 0.0
2018-Feb-14 11:00N 33°44' W 118°16'0 0.0
2018-Feb-14 10:30N 33°44' W 118°16'0 0.0
2018-Feb-14 10:01N 33°44' W 118°16'0 0.0
2018-Feb-14 09:31N 33°44' W 118°16'0 0.0
2018-Feb-14 09:01N 33°44' W 118°16'0 0.0
2018-Feb-14 08:30N 33°44' W 118°16'0 0.0
2018-Feb-14 08:01N 33°44' W 118°16'0 0.0
2018-Feb-14 07:30N 33°44' W 118°16'0 0.0
2018-Feb-14 07:00N 33°44' W 118°16'0 0.0
2018-Feb-14 06:29N 33°44' W 118°16'0 0.0
2018-Feb-14 06:00N 33°44' W 118°16'2 3.0
2018-Feb-14 05:22N 33°43' W 118°13'2 6.3
2018-Feb-14 05:01N 33°43' W 118°16'2 4.7
2018-Feb-14 04:31N 33°46' W 118°16'0 0.9
2018-Feb-14 04:00N 33°46' W 118°15'0 0.1
2018-Feb-14 03:31N 33°46' W 118°15'0 0.0
2018-Feb-14 03:00N 33°46' W 118°15'2 3.7
2018-Feb-14 02:30N 33°44' W 118°17'1 1.6
2018-Feb-14 02:00N 33°44' W 118°16'0 0.0
2018-Feb-14 01:30N 33°44' W 118°16'0 0.0
2018-Feb-14 01:00N 33°44' W 118°16'0 0.0
2018-Feb-14 00:29N 33°44' W 118°16'0 0.0
2018-Feb-14 00:00N 33°44' W 118°16'1 1.8
2018-Feb-13 23:30N 33°44' W 118°17'1 3.0
2018-Feb-13 23:01N 33°46' W 118°16'1 1.5
2018-Feb-13 22:30N 33°45' W 118°16'3 5.4
2018-Feb-13 22:00N 33°43' W 118°15'3 5.5
2018-Feb-13 21:30N 33°44' W 118°12'0 0.1
2018-Feb-13 21:01N 33°44' W 118°12'2 3.7
2018-Feb-13 20:30N 33°44' W 118°10'4 7.4
2018-Feb-13 20:00N 33°43' W 118°14'2 3.3
2018-Feb-13 19:31N 33°44' W 118°16'0 0.0
2018-Feb-13 19:01N 33°44' W 118°16'0 0.0
2018-Feb-13 18:31N 33°44' W 118°16'0 0.0
2018-Feb-13 18:01N 33°44' W 118°16'0 0.0
2018-Feb-13 17:30N 33°44' W 118°16'0 0.0
2018-Feb-13 17:00N 33°44' W 118°16'0 0.5
2018-Feb-13 16:31N 33°44' W 118°15'1 1.1
2018-Feb-13 16:01N 33°43' W 118°16'1 2.8
2018-Feb-13 15:30N 33°45' W 118°16'2 4.9
2018-Feb-13 15:01N 33°43' W 118°14'3 5.3
2018-Feb-13 14:29N 33°45' W 118°12'1 1.7
2018-Feb-13 14:00N 33°44' W 118°12'0 1.0
2018-Feb-13 13:30N 33°44' W 118°12'3 5.2
2018-Feb-13 13:01N 33°44' W 118°15'0 0.1
2018-Feb-13 12:30N 33°44' W 118°15'1 2.3
2018-Feb-13 12:01N 33°43' W 118°15'1 2.5
2018-Feb-13 11:30N 33°44' W 118°16'0 0.0
2018-Feb-13 11:00N 33°44' W 118°16'0 0.0
2018-Feb-13 10:31N 33°44' W 118°16'0 0.0
2018-Feb-13 09:59N 33°44' W 118°16'0 0.0
2018-Feb-13 09:31N 33°44' W 118°16'0 0.0
2018-Feb-13 08:59N 33°44' W 118°16'0 0.0
2018-Feb-13 08:30N 33°44' W 118°16'0 0.0
2018-Feb-13 08:00N 33°44' W 118°16'0 0.0
2018-Feb-13 07:30N 33°44' W 118°16'0 0.0
2018-Feb-13 07:01N 33°44' W 118°16'0 0.0
2018-Feb-13 06:31N 33°44' W 118°16'0 0.0
2018-Feb-13 06:00N 33°44' W 118°16'0 0.0
2018-Feb-13 05:30N 33°44' W 118°16'0 0.0
2018-Feb-13 05:00N 33°44' W 118°16'0 0.0
2018-Feb-13 04:30N 33°44' W 118°16'0 0.0
2018-Feb-13 04:01N 33°44' W 118°16'0 0.0
2018-Feb-13 03:26N 33°44' W 118°16'0 0.0
2018-Feb-13 03:01N 33°44' W 118°16'0 0.0
2018-Feb-13 02:31N 33°44' W 118°16'1 1.3
2018-Feb-13 02:00N 33°44' W 118°16'2 3.8
2018-Feb-13 01:31N 33°46' W 118°15'1 1.1
2018-Feb-13 01:01N 33°46' W 118°15'1 1.7
2018-Feb-13 00:31N 33°45' W 118°16'2 3.1
2018-Feb-13 00:00N 33°44' W 118°16'0 0.0
2018-Feb-12 23:31N 33°44' W 118°16'0 0.0
2018-Feb-12 22:59N 33°44' W 118°16'0 0.0
2018-Feb-12 22:31N 33°44' W 118°16'0 0.0
2018-Feb-12 22:00N 33°44' W 118°16'0 0.0
2018-Feb-12 21:30N 33°44' W 118°16'0 0.0
2018-Feb-12 21:00N 33°44' W 118°16'0 0.0
2018-Feb-12 20:29N 33°44' W 118°16'2 3.8
2018-Feb-12 20:00N 33°43' W 118°14'0 0.1
2018-Feb-12 19:30N 33°43' W 118°14'2 3.8
2018-Feb-12 19:00N 33°44' W 118°16'1 1.2
2018-Feb-12 18:30N 33°44' W 118°16'0 0.0
2018-Feb-12 18:01N 33°44' W 118°16'0 0.0
2018-Feb-12 17:31N 33°44' W 118°16'0 0.9
2018-Feb-12 17:01N 33°43' W 118°16'4 8.9
2018-Feb-12 16:30N 33°44' W 118°11'4 8.7
2018-Feb-12 16:00N 33°44' W 118°06'0 0.5
2018-Feb-12 15:31N 33°44' W 118°06'1 1.8
2018-Feb-12 15:00N 33°44' W 118°07'511.1
2018-Feb-12 14:30N 33°43' W 118°13'2 4.1
2018-Feb-12 14:01N 33°44' W 118°16'0 0.0
2018-Feb-12 13:31N 33°44' W 118°16'0 0.0
2018-Feb-12 13:01N 33°44' W 118°16'0 0.0
2018-Feb-12 12:31N 33°44' W 118°16'0 0.0
2018-Feb-12 12:01N 33°44' W 118°16'0 0.0
2018-Feb-12 11:30N 33°44' W 118°16'0 0.0
2018-Feb-12 11:00N 33°44' W 118°16'0 0.0
2018-Feb-12 10:30N 33°44' W 118°16'0 0.0
2018-Feb-12 10:00N 33°44' W 118°16'0 0.0
2018-Feb-12 09:30N 33°44' W 118°16'0 0.0
2018-Feb-12 09:01N 33°44' W 118°16'0 0.0
2018-Feb-12 08:30N 33°44' W 118°16'0 0.0
2018-Feb-12 08:01N 33°44' W 118°16'0 0.0
2018-Feb-12 07:30N 33°44' W 118°16'0 0.0
2018-Feb-12 07:00N 33°44' W 118°16'0 0.0
2018-Feb-12 06:30N 33°44' W 118°16'0 0.0
2018-Feb-12 06:01N 33°44' W 118°16'0 0.0
2018-Feb-12 05:31N 33°44' W 118°16'0 0.0
2018-Feb-12 05:01N 33°44' W 118°16'0 0.0
2018-Feb-12 04:31N 33°44' W 118°16'0 0.0
2018-Feb-12 04:01N 33°44' W 118°16'0 0.0
2018-Feb-12 03:30N 33°44' W 118°16'0 0.0
2018-Feb-12 03:01N 33°44' W 118°16'0 0.0
2018-Feb-12 02:30N 33°44' W 118°16'0 0.0
2018-Feb-12 02:01N 33°44' W 118°16'0 0.0
2018-Feb-12 01:31N 33°44' W 118°16'0 0.0
2018-Feb-12 01:00N 33°44' W 118°16'0 0.0
2018-Feb-12 00:31N 33°44' W 118°16'0 0.6
2018-Feb-12 00:00N 33°44' W 118°16'2 3.4
2018-Feb-11 23:30N 33°43' W 118°14'2 3.9
2018-Feb-11 23:01N 33°44' W 118°16'0 0.2
2018-Feb-11 22:31N 33°44' W 118°16'0 0.2
2018-Feb-11 22:00N 33°44' W 118°16'2 3.4
2018-Feb-11 21:29N 33°43' W 118°14'2 3.6
2018-Feb-11 21:00N 33°44' W 118°16'0 0.0
2018-Feb-11 20:31N 33°44' W 118°16'0 0.0
2018-Feb-11 20:01N 33°44' W 118°16'0 0.0
2018-Feb-11 19:30N 33°44' W 118°16'0 0.0
2018-Feb-11 19:00N 33°44' W 118°16'0 0.0
2018-Feb-11 18:31N 33°44' W 118°16'0 0.0
2018-Feb-11 18:01N 33°44' W 118°16'0 0.0
2018-Feb-11 17:31N 33°44' W 118°16'0 0.0
2018-Feb-11 17:00N 33°44' W 118°16'0 0.0
2018-Feb-11 16:30N 33°44' W 118°16'2 3.6
2018-Feb-11 16:01N 33°43' W 118°14'1 1.5
2018-Feb-11 15:31N 33°43' W 118°15'1 2.8
2018-Feb-11 15:01N 33°44' W 118°16'0 0.0
2018-Feb-11 14:31N 33°44' W 118°16'1 1.1
2018-Feb-11 14:00N 33°44' W 118°16'2 3.8
2018-Feb-11 13:30N 33°46' W 118°17'0 0.0
2018-Feb-11 13:00N 33°46' W 118°17'2 4.3
2018-Feb-11 12:30N 33°44' W 118°16'1 1.1
2018-Feb-11 12:00N 33°44' W 118°16'0 0.0
2018-Feb-11 11:31N 33°44' W 118°16'0 0.0
2018-Feb-11 11:01N 33°44' W 118°16'0 0.0
2018-Feb-11 10:30N 33°44' W 118°16'0 0.0
2018-Feb-11 10:00N 33°44' W 118°16'0 0.0
2018-Feb-11 09:31N 33°44' W 118°16'0 0.0
2018-Feb-11 09:00N 33°44' W 118°16'0 0.0
2018-Feb-11 08:30N 33°44' W 118°16'0 0.0
2018-Feb-11 08:01N 33°44' W 118°16'0 0.0
2018-Feb-11 07:31N 33°44' W 118°16'0 0.0
2018-Feb-11 07:00N 33°44' W 118°16'0 0.0
2018-Feb-11 06:31N 33°44' W 118°16'0 0.0
2018-Feb-11 06:00N 33°44' W 118°16'0 0.0
2018-Feb-11 05:31N 33°44' W 118°16'0 0.0
2018-Feb-11 05:00N 33°44' W 118°16'0 0.0
2018-Feb-11 04:30N 33°44' W 118°16'0 0.0
2018-Feb-11 04:00N 33°44' W 118°16'0 0.0
2018-Feb-11 03:30N 33°44' W 118°16'0 0.0
2018-Feb-11 03:01N 33°44' W 118°16'0 0.0
2018-Feb-11 02:30N 33°44' W 118°16'0 0.0
2018-Feb-11 02:00N 33°44' W 118°16'0 0.0
2018-Feb-11 01:30N 33°44' W 118°16'0 0.0
2018-Feb-11 01:01N 33°44' W 118°16'0 0.0
2018-Feb-11 00:30N 33°44' W 118°16'0 0.0
2018-Feb-11 00:00N 33°44' W 118°16'0 0.0
2018-Feb-10 23:31N 33°44' W 118°16'0 0.5
2018-Feb-10 23:00N 33°44' W 118°15'0 0.3
2018-Feb-10 22:30N 33°44' W 118°16'1 2.5
2018-Feb-10 22:00N 33°43' W 118°15'1 2.6
2018-Feb-10 21:30N 33°44' W 118°16'0 0.0
2018-Feb-10 21:00N 33°44' W 118°16'0 0.0
2018-Feb-10 20:31N 33°44' W 118°16'0 0.0
2018-Feb-10 20:01N 33°44' W 118°16'0 0.0
2018-Feb-10 19:31N 33°44' W 118°16'0 0.0
2018-Feb-10 19:01N 33°44' W 118°16'0 0.0
2018-Feb-10 18:30N 33°44' W 118°16'0 0.0
2018-Feb-10 18:01N 33°44' W 118°16'0 0.0
2018-Feb-10 17:31N 33°44' W 118°16'0 0.0
2018-Feb-10 17:01N 33°44' W 118°16'0 0.0
2018-Feb-10 16:31N 33°44' W 118°16'1 2.4
2018-Feb-10 16:00N 33°43' W 118°15'4 7.3
2018-Feb-10 15:29N 33°45' W 118°11'1 2.4
2018-Feb-10 15:00N 33°44' W 118°11'1 2.8
2018-Feb-10 14:30N 33°45' W 118°12'1 2.5
2018-Feb-10 13:58N 33°45' W 118°14'1 2.4
2018-Feb-10 13:30N 33°45' W 118°13'1 2.9
2018-Feb-10 13:00N 33°44' W 118°11'3 5.1
2018-Feb-10 12:30N 33°46' W 118°13'0 0.8
2018-Feb-10 12:01N 33°46' W 118°13'2 4.0
2018-Feb-10 11:31N 33°44' W 118°13'2 3.7
2018-Feb-10 11:00N 33°44' W 118°16'0 0.0
2018-Feb-10 10:31N 33°44' W 118°16'0 0.0
2018-Feb-10 10:00N 33°44' W 118°16'0 0.0
2018-Feb-10 09:30N 33°44' W 118°16'0 0.0
2018-Feb-10 09:00N 33°44' W 118°16'0 0.0
2018-Feb-10 08:30N 33°44' W 118°16'0 0.0
2018-Feb-10 08:01N 33°44' W 118°16'0 0.0
2018-Feb-10 07:30N 33°44' W 118°16'0 0.0
2018-Feb-10 07:01N 33°44' W 118°16'0 0.0
2018-Feb-10 06:30N 33°44' W 118°16'0 0.0
2018-Feb-10 06:00N 33°44' W 118°16'0 0.0
2018-Feb-10 05:30N 33°44' W 118°16'0 0.0
2018-Feb-10 05:01N 33°44' W 118°16'0 0.0
2018-Feb-10 04:30N 33°44' W 118°16'0 0.0
2018-Feb-10 04:00N 33°44' W 118°16'0 0.0
2018-Feb-10 03:31N 33°44' W 118°16'  
Track history (hours):
 
Tides and Currents Weather Stations Pressure Air Temp Water Temp Dewpoint Dewpoint Depression Visibility Wind Speed Wind Dir Waves Ship Positions

Tim Quigg

Owner: Harley Marine Services, Inc, Seattle, WA. More information available from US FCC via Universal Licensing System and Coast Guard Vessel Documentation Center.

Last reported at 2018-Feb-20 03:30 UTC. Time now 2018-Feb-20 03:57 UTC.
Position N 33°46' W 118°13'.

; draft 4.4 m.

Type: Tug. MMSI: 366926740.

Date/timePositionNaut miles runAvg speedWind from/ knotsBaromVisibWave heightAir tempDewpointWater temp
2018-Feb-20 03:30N 33°46' W 118°13'1 2.5
2018-Feb-20 03:00N 33°45' W 118°13'1 1.0
2018-Feb-20 02:24N 33°46' W 118°13'0 0.3
2018-Feb-20 02:00N 33°45' W 118°13'0 0.0
2018-Feb-20 01:30N 33°45' W 118°13'2 4.0
2018-Feb-20 01:00N 33°46' W 118°15'1 1.9
2018-Feb-20 00:29N 33°45' W 118°16'2 3.7
2018-Feb-20 00:00N 33°44' W 118°16'1 2.7
2018-Feb-19 23:30N 33°43' W 118°15'1 2.3
2018-Feb-19 23:00N 33°44' W 118°15'0 0.1
2018-Feb-19 22:30N 33°44' W 118°15'1 1.6
2018-Feb-19 22:00N 33°43' W 118°16'1 1.6
2018-Feb-19 21:30N 33°44' W 118°16'0 0.0
2018-Feb-19 21:00N 33°44' W 118°16'0 0.0
2018-Feb-19 20:30N 33°44' W 118°16'0 0.0
2018-Feb-19 19:59N 33°44' W 118°16'0 0.0
2018-Feb-19 19:30N 33°44' W 118°16'0 0.0
2018-Feb-19 19:00N 33°44' W 118°16'0 0.0
2018-Feb-19 18:30N 33°44' W 118°16'0 0.0
2018-Feb-19 18:00N 33°44' W 118°16'0 0.0
2018-Feb-19 17:30N 33°44' W 118°16'0 0.0
2018-Feb-19 17:00N 33°44' W 118°16'0 0.0
2018-Feb-19 16:30N 33°44' W 118°16'0 0.0
2018-Feb-19 16:00N 33°44' W 118°16'2 3.2
2018-Feb-19 15:30N 33°43' W 118°14'2 3.9
2018-Feb-19 15:00N 33°45' W 118°12'1 2.7
2018-Feb-19 14:30N 33°44' W 118°11'0 0.2
2018-Feb-19 13:58N 33°44' W 118°11'0 0.5
2018-Feb-19 13:29N 33°44' W 118°12'1 2.1
2018-Feb-19 12:58N 33°45' W 118°12'0 0.2
2018-Feb-19 12:20N 33°45' W 118°12'0 0.5
2018-Feb-19 12:00N 33°45' W 118°12'0 0.9
2018-Feb-19 11:30N 33°44' W 118°12'3 5.6
2018-Feb-19 11:00N 33°44' W 118°16'0 0.0
2018-Feb-19 10:30N 33°44' W 118°16'0 0.0
2018-Feb-19 10:00N 33°44' W 118°16'0 0.0
2018-Feb-19 09:30N 33°44' W 118°16'0 0.0
2018-Feb-19 09:00N 33°44' W 118°16'0 0.0
2018-Feb-19 08:30N 33°44' W 118°16'0 0.0
2018-Feb-19 08:00N 33°44' W 118°16'0 0.0
2018-Feb-19 07:30N 33°44' W 118°16'0 0.0
2018-Feb-19 07:00N 33°44' W 118°16'0 0.0
2018-Feb-19 06:30N 33°44' W 118°16'0 0.0
2018-Feb-19 06:00N 33°44' W 118°16'0 0.0
2018-Feb-19 05:30N 33°44' W 118°16'0 0.0
2018-Feb-19 05:00N 33°44' W 118°16'0 0.0
2018-Feb-19 04:30N 33°44' W 118°16'0 0.0
2018-Feb-19 04:00N 33°44' W 118°16'0 0.0
2018-Feb-19 03:30N 33°44' W 118°16'0 0.3
2018-Feb-19 03:00N 33°44' W 118°16'2 4.7
2018-Feb-19 02:30N 33°43' W 118°13'1 1.3
2018-Feb-19 01:51N 33°44' W 118°12'0 0.0
2018-Feb-19 01:30N 33°44' W 118°12'0 0.3
2018-Feb-19 01:01N 33°44' W 118°12'3 5.5
2018-Feb-19 00:30N 33°46' W 118°14'1 2.3
2018-Feb-19 00:00N 33°45' W 118°13'2 4.1
2018-Feb-18 23:30N 33°43' W 118°13'2 4.1
2018-Feb-18 23:00N 33°44' W 118°16'0 0.0
2018-Feb-18 22:30N 33°44' W 118°16'0 0.0
2018-Feb-18 22:00N 33°44' W 118°16'0 0.0
2018-Feb-18 21:30N 33°44' W 118°16'0 0.0
2018-Feb-18 21:00N 33°44' W 118°16'0 0.0
2018-Feb-18 20:30N 33°44' W 118°16'0 0.0
2018-Feb-18 20:00N 33°44' W 118°16'0 0.0
2018-Feb-18 19:30N 33°44' W 118°16'0 0.0
2018-Feb-18 19:00N 33°44' W 118°16'0 0.0
2018-Feb-18 18:30N 33°44' W 118°16'0 0.0
2018-Feb-18 18:00N 33°44' W 118°16'0 0.0
2018-Feb-18 17:30N 33°44' W 118°16'0 0.0
2018-Feb-18 17:00N 33°44' W 118°16'0 0.0
2018-Feb-18 16:30N 33°44' W 118°16'0 0.4
2018-Feb-18 16:00N 33°44' W 118°15'1 1.5
2018-Feb-18 15:30N 33°43' W 118°16'1 1.8
2018-Feb-18 15:01N 33°43' W 118°15'1 2.6
2018-Feb-18 14:30N 33°44' W 118°16'0 0.0
2018-Feb-18 14:00N 33°44' W 118°16'0 0.0
2018-Feb-18 13:30N 33°44' W 118°16'0 0.0
2018-Feb-18 13:00N 33°44' W 118°16'0 0.0
2018-Feb-18 12:30N 33°44' W 118°16'0 0.0
2018-Feb-18 12:00N 33°44' W 118°16'0 0.0
2018-Feb-18 11:30N 33°44' W 118°16'0 0.0
2018-Feb-18 11:00N 33°44' W 118°16'0 0.0
2018-Feb-18 10:30N 33°44' W 118°16'0 0.0
2018-Feb-18 10:00N 33°44' W 118°16'0 0.0
2018-Feb-18 09:30N 33°44' W 118°16'0 0.0
2018-Feb-18 09:00N 33°44' W 118°16'0 0.0
2018-Feb-18 08:30N 33°44' W 118°16'0 0.0
2018-Feb-18 08:00N 33°44' W 118°16'0 0.0
2018-Feb-18 07:30N 33°44' W 118°16'0 0.0
2018-Feb-18 07:00N 33°44' W 118°16'0 0.0
2018-Feb-18 06:30N 33°44' W 118°16'0 0.0
2018-Feb-18 06:00N 33°44' W 118°16'0 0.0
2018-Feb-18 05:30N 33°44' W 118°16'0 0.0
2018-Feb-18 05:00N 33°44' W 118°16'0 0.0
2018-Feb-18 04:30N 33°44' W 118°16'0 0.0
2018-Feb-18 04:00N 33°44' W 118°16'0 0.0
2018-Feb-18 03:30N 33°44' W 118°16'1 2.0
2018-Feb-18 03:00N 33°44' W 118°17'2 3.2
2018-Feb-18 02:30N 33°46' W 118°15'0 0.2
2018-Feb-18 02:00N 33°46' W 118°16'0 0.0
2018-Feb-18 01:30N 33°46' W 118°16'2 4.9
2018-Feb-18 01:00N 33°45' W 118°13'1 1.6
2018-Feb-18 00:30N 33°45' W 118°12'1 1.2
2018-Feb-18 00:00N 33°44' W 118°12'1 3.0
2018-Feb-17 23:30N 33°44' W 118°11'3 6.5
2018-Feb-17 23:00N 33°43' W 118°15'1 2.5
2018-Feb-17 22:30N 33°44' W 118°16'0 0.0
2018-Feb-17 22:00N 33°44' W 118°16'0 0.0
2018-Feb-17 21:30N 33°44' W 118°16'0 0.0
2018-Feb-17 21:00N 33°44' W 118°16'0 0.0
2018-Feb-17 20:30N 33°44' W 118°16'0 0.0
2018-Feb-17 20:00N 33°44' W 118°16'0 0.0
2018-Feb-17 19:30N 33°44' W 118°16'0 0.0
2018-Feb-17 19:00N 33°44' W 118°16'0 0.0
2018-Feb-17 18:30N 33°44' W 118°16'0 0.0
2018-Feb-17 18:00N 33°44' W 118°16'0 0.0
2018-Feb-17 17:30N 33°44' W 118°16'0 0.0
2018-Feb-17 17:00N 33°44' W 118°16'0 0.0
2018-Feb-17 16:30N 33°44' W 118°16'0 0.0
2018-Feb-17 16:00N 33°44' W 118°16'0 0.0
2018-Feb-17 15:30N 33°44' W 118°16'0 0.0
2018-Feb-17 15:00N 33°44' W 118°16'0 0.0
2018-Feb-17 14:30N 33°44' W 118°16'0 0.0
2018-Feb-17 14:00N 33°44' W 118°16'0 0.0
2018-Feb-17 13:30N 33°44' W 118°16'0 0.0
2018-Feb-17 13:00N 33°44' W 118°16'0 0.0
2018-Feb-17 12:30N 33°44' W 118°16'0 0.0
2018-Feb-17 12:00N 33°44' W 118°16'0 0.0
2018-Feb-17 11:30N 33°44' W 118°16'0 0.0
2018-Feb-17 11:00N 33°44' W 118°16'0 0.0
2018-Feb-17 10:30N 33°44' W 118°16'0 0.0
2018-Feb-17 10:00N 33°44' W 118°16'0 0.0
2018-Feb-17 09:30N 33°44' W 118°16'0 0.0
2018-Feb-17 09:00N 33°44' W 118°16'0 0.0
2018-Feb-17 08:30N 33°44' W 118°16'0 0.0
2018-Feb-17 08:00N 33°44' W 118°16'0 0.0
2018-Feb-17 07:30N 33°44' W 118°16'0 0.0
2018-Feb-17 07:00N 33°44' W 118°16'0 0.0
2018-Feb-17 06:30N 33°44' W 118°16'0 0.0
2018-Feb-17 06:00N 33°44' W 118°16'0 0.0
2018-Feb-17 05:30N 33°44' W 118°16'0 0.0
2018-Feb-17 05:00N 33°44' W 118°16'0 0.0
2018-Feb-17 04:30N 33°44' W 118°16'0 0.0
2018-Feb-17 04:00N 33°44' W 118°16'0 0.0
2018-Feb-17 03:30N 33°44' W 118°16'0 0.0
2018-Feb-17 03:00N 33°44' W 118°16'0 0.0
2018-Feb-17 02:30N 33°44' W 118°16'0 0.0
2018-Feb-17 02:00N 33°44' W 118°16'0 0.0
2018-Feb-17 01:30N 33°44' W 118°16'0 0.0
2018-Feb-17 01:00N 33°44' W 118°16'0 0.0
2018-Feb-17 00:30N 33°44' W 118°16'0 0.0
2018-Feb-17 00:00N 33°44' W 118°16'0 0.0
2018-Feb-16 23:30N 33°44' W 118°16'0 0.0
2018-Feb-16 23:00N 33°44' W 118°16'0 0.0
2018-Feb-16 22:30N 33°44' W 118°16'0 0.0
2018-Feb-16 22:00N 33°44' W 118°16'0 0.0
2018-Feb-16 21:30N 33°44' W 118°16'0 0.0
2018-Feb-16 21:00N 33°44' W 118°16'0 0.0
2018-Feb-16 20:30N 33°44' W 118°16'0 0.0
2018-Feb-16 20:00N 33°44' W 118°16'0 0.0
2018-Feb-16 19:30N 33°44' W 118°16'1 2.8
2018-Feb-16 19:00N 33°43' W 118°14'4 8.8
2018-Feb-16 18:30N 33°44' W 118°09'3 6.0
2018-Feb-16 18:00N 33°44' W 118°06'1 1.6
2018-Feb-16 17:31N 33°44' W 118°06'5 9.9
2018-Feb-16 17:00N 33°44' W 118°12'2 3.1
2018-Feb-16 16:30N 33°45' W 118°13'0 0.0
2018-Feb-16 16:00N 33°45' W 118°13'2 4.3
2018-Feb-16 15:30N 33°43' W 118°13'2 4.1
2018-Feb-16 15:00N 33°44' W 118°16'0 0.4
2018-Feb-16 14:30N 33°44' W 118°16'1 1.4
2018-Feb-16 13:59N 33°44' W 118°15'1 2.5
2018-Feb-16 13:30N 33°44' W 118°16'2 3.3
2018-Feb-16 13:00N 33°45' W 118°17'1 2.4
2018-Feb-16 12:30N 33°44' W 118°17'1 1.5
2018-Feb-16 12:00N 33°44' W 118°16'0 0.0
2018-Feb-16 11:30N 33°44' W 118°16'0 0.0
2018-Feb-16 11:00N 33°44' W 118°16'0 0.0
2018-Feb-16 10:30N 33°44' W 118°16'0 0.0
2018-Feb-16 10:00N 33°44' W 118°16'0 0.0
2018-Feb-16 09:30N 33°44' W 118°16'0 0.0
2018-Feb-16 09:00N 33°44' W 118°16'0 0.0
2018-Feb-16 08:30N 33°44' W 118°16'0 0.0
2018-Feb-16 08:00N 33°44' W 118°16'0 0.0
2018-Feb-16 07:30N 33°44' W 118°16'0 0.0
2018-Feb-16 07:00N 33°44' W 118°16'0 0.0
2018-Feb-16 06:30N 33°44' W 118°16'0 0.0
2018-Feb-16 06:00N 33°44' W 118°16'0 0.0
2018-Feb-16 05:30N 33°44' W 118°16'0 0.0
2018-Feb-16 05:00N 33°44' W 118°16'0 0.0
2018-Feb-16 04:30N 33°44' W 118°16'0 0.0
2018-Feb-16 04:00N 33°44' W 118°16'0 0.0
2018-Feb-16 03:30N 33°44' W 118°16'0 0.0
2018-Feb-16 03:00N 33°44' W 118°16'0 0.0
2018-Feb-16 02:30N 33°44' W 118°16'0 0.0
2018-Feb-16 02:00N 33°44' W 118°16'0 0.0
2018-Feb-16 01:30N 33°44' W 118°16'0 0.0
2018-Feb-16 01:00N 33°44' W 118°16'0 0.0
2018-Feb-16 00:30N 33°44' W 118°16'0 0.0
2018-Feb-16 00:00N 33°44' W 118°16'0 0.0
2018-Feb-15 23:30N 33°44' W 118°16'0 0.0
2018-Feb-15 23:00N 33°44' W 118°16'0 0.0
2018-Feb-15 22:30N 33°44' W 118°16'0 0.0
2018-Feb-15 22:00N 33°44' W 118°16'0 0.0
2018-Feb-15 21:30N 33°44' W 118°16'1 1.8
2018-Feb-15 21:01N 33°44' W 118°17'1 2.8
2018-Feb-15 20:30N 33°46' W 118°16'0 0.1
2018-Feb-15 20:00N 33°46' W 118°16'0 0.7
2018-Feb-15 19:30N 33°45' W 118°16'2 4.4
2018-Feb-15 19:01N 33°43' W 118°16'3 6.1
2018-Feb-15 18:30N 33°43' W 118°12'3 6.3
2018-Feb-15 18:00N 33°44' W 118°16'0 0.0
2018-Feb-15 17:30N 33°44' W 118°16'0 0.0
2018-Feb-15 17:00N 33°44' W 118°16'1 2.0
2018-Feb-15 16:30N 33°43' W 118°15'2 4.4
2018-Feb-15 16:00N 33°44' W 118°13'3 5.1
2018-Feb-15 15:30N 33°43' W 118°16'3 5.6
2018-Feb-15 15:00N 33°46' W 118°16'2 3.2
2018-Feb-15 14:30N 33°44' W 118°17'1 1.8
2018-Feb-15 14:00N 33°44' W 118°16'0 0.0
2018-Feb-15 13:30N 33°44' W 118°16'1 2.9
2018-Feb-15 13:00N 33°45' W 118°16'1 1.0
2018-Feb-15 12:30N 33°46' W 118°15'2 3.7
2018-Feb-15 12:00N 33°44' W 118°17'2 3.6
2018-Feb-15 11:30N 33°43' W 118°15'1 2.4
2018-Feb-15 11:00N 33°44' W 118°16'0 0.0
2018-Feb-15 10:30N 33°44' W 118°16'0 0.0
2018-Feb-15 10:00N 33°44' W 118°16'0 0.0
2018-Feb-15 09:30N 33°44' W 118°16'0 0.0
2018-Feb-15 09:00N 33°44' W 118°16'0 0.0
2018-Feb-15 08:30N 33°44' W 118°16'3 4.9
2018-Feb-15 07:59N 33°44' W 118°13'1 1.1
2018-Feb-15 07:29N 33°44' W 118°12'3 5.4
2018-Feb-15 06:58N 33°43' W 118°15'1 2.1
2018-Feb-15 06:30N 33°44' W 118°16'0 0.0
2018-Feb-15 06:00N 33°44' W 118°16'0 0.0
2018-Feb-15 05:30N 33°44' W 118°16'0 0.0
2018-Feb-15 05:00N 33°44' W 118°16'0 0.0
2018-Feb-15 04:30N 33°44' W 118°16'0 0.0
2018-Feb-15 04:00N 33°44' W 118°16'0 0.0
2018-Feb-15 03:30N 33°44' W 118°16'1 1.3
2018-Feb-15 03:00N 33°43' W 118°16'2 4.8
2018-Feb-15 02:30N 33°46' W 118°16'0 0.2
2018-Feb-15 02:00N 33°46' W 118°15'2 3.5
2018-Feb-15 01:31N 33°44' W 118°17'1 1.5
2018-Feb-15 01:00N 33°44' W 118°16'0 0.0
2018-Feb-15 00:30N 33°44' W 118°16'0 0.0
2018-Feb-15 00:00N 33°44' W 118°16'0 0.0
2018-Feb-14 23:30N 33°44' W 118°16'0 0.0
2018-Feb-14 23:00N 33°44' W 118°16'0 0.1
2018-Feb-14 22:30N 33°44' W 118°16'2 4.3
2018-Feb-14 22:00N 33°46' W 118°16'0 0.9
2018-Feb-14 21:30N 33°45' W 118°16'0 0.0
2018-Feb-14 20:11N 33°45' W 118°16'0 0.0
2018-Feb-14 20:00N 33°45' W 118°16'0 0.0
2018-Feb-14 19:30N 33°45' W 118°16'0 0.0
2018-Feb-14 19:01N 33°45' W 118°16'0 0.0
2018-Feb-14 18:31N 33°45' W 118°16'0 0.0
2018-Feb-14 18:00N 33°45' W 118°16'0 0.5
2018-Feb-14 17:31N 33°46' W 118°15'1 2.1
2018-Feb-14 17:01N 33°46' W 118°14'0 0.2
2018-Feb-14 16:31N 33°46' W 118°14'2 4.3
2018-Feb-14 16:01N 33°44' W 118°12'0 0.3
2018-Feb-14 15:30N 33°45' W 118°12'3 5.6
2018-Feb-14 15:01N 33°44' W 118°16'0 0.0
2018-Feb-14 14:31N 33°44' W 118°16'0 0.9
2018-Feb-14 14:00N 33°43' W 118°16'1 2.9
2018-Feb-14 13:30N 33°45' W 118°16'0 0.6
2018-Feb-14 13:00N 33°45' W 118°16'3 4.9
2018-Feb-14 12:28N 33°43' W 118°15'1 2.9
2018-Feb-14 12:00N 33°44' W 118°16'0 0.0
2018-Feb-14 11:29N 33°44' W 118°16'0 0.0
2018-Feb-14 11:00N 33°44' W 118°16'0 0.0
2018-Feb-14 10:30N 33°44' W 118°16'0 0.0
2018-Feb-14 10:01N 33°44' W 118°16'0 0.0
2018-Feb-14 09:31N 33°44' W 118°16'0 0.0
2018-Feb-14 09:01N 33°44' W 118°16'0 0.0
2018-Feb-14 08:30N 33°44' W 118°16'0 0.0
2018-Feb-14 08:01N 33°44' W 118°16'0 0.0
2018-Feb-14 07:30N 33°44' W 118°16'0 0.0
2018-Feb-14 07:00N 33°44' W 118°16'0 0.0
2018-Feb-14 06:29N 33°44' W 118°16'0 0.0
2018-Feb-14 06:00N 33°44' W 118°16'2 3.0
2018-Feb-14 05:22N 33°43' W 118°13'2 6.3
2018-Feb-14 05:01N 33°43' W 118°16'2 4.7
2018-Feb-14 04:31N 33°46' W 118°16'0 0.9
2018-Feb-14 04:00N 33°46' W 118°15'0 0.1
2018-Feb-14 03:31N 33°46' W 118°15'0 0.0
2018-Feb-14 03:00N 33°46' W 118°15'2 3.7
2018-Feb-14 02:30N 33°44' W 118°17'1 1.6
2018-Feb-14 02:00N 33°44' W 118°16'0 0.0
2018-Feb-14 01:30N 33°44' W 118°16'0 0.0
2018-Feb-14 01:00N 33°44' W 118°16'0 0.0
2018-Feb-14 00:29N 33°44' W 118°16'0 0.0
2018-Feb-14 00:00N 33°44' W 118°16'1 1.8
2018-Feb-13 23:30N 33°44' W 118°17'1 3.0
2018-Feb-13 23:01N 33°46' W 118°16'1 1.5
2018-Feb-13 22:30N 33°45' W 118°16'3 5.4
2018-Feb-13 22:00N 33°43' W 118°15'3 5.5
2018-Feb-13 21:30N 33°44' W 118°12'0 0.1
2018-Feb-13 21:01N 33°44' W 118°12'2 3.7
2018-Feb-13 20:30N 33°44' W 118°10'4 7.4
2018-Feb-13 20:00N 33°43' W 118°14'2 3.3
2018-Feb-13 19:31N 33°44' W 118°16'0 0.0
2018-Feb-13 19:01N 33°44' W 118°16'0 0.0
2018-Feb-13 18:31N 33°44' W 118°16'0 0.0
2018-Feb-13 18:01N 33°44' W 118°16'0 0.0
2018-Feb-13 17:30N 33°44' W 118°16'0 0.0
2018-Feb-13 17:00N 33°44' W 118°16'0 0.5
2018-Feb-13 16:31N 33°44' W 118°15'1 1.1
2018-Feb-13 16:01N 33°43' W 118°16'1 2.8
2018-Feb-13 15:30N 33°45' W 118°16'2 4.9
2018-Feb-13 15:01N 33°43' W 118°14'3 5.3
2018-Feb-13 14:29N 33°45' W 118°12'1 1.7
2018-Feb-13 14:00N 33°44' W 118°12'0 1.0
2018-Feb-13 13:30N 33°44' W 118°12'3 5.2
2018-Feb-13 13:01N 33°44' W 118°15'0 0.1
2018-Feb-13 12:30N 33°44' W 118°15'1 2.3
2018-Feb-13 12:01N 33°43' W 118°15'1 2.5
2018-Feb-13 11:30N 33°44' W 118°16'0 0.0
2018-Feb-13 11:00N 33°44' W 118°16'0 0.0
2018-Feb-13 10:31N 33°44' W 118°16'0 0.0
2018-Feb-13 09:59N 33°44' W 118°16'0 0.0
2018-Feb-13 09:31N 33°44' W 118°16'0 0.0
2018-Feb-13 08:59N 33°44' W 118°16'0 0.0
2018-Feb-13 08:30N 33°44' W 118°16'0 0.0
2018-Feb-13 08:00N 33°44' W 118°16'0 0.0
2018-Feb-13 07:30N 33°44' W 118°16'0 0.0
2018-Feb-13 07:01N 33°44' W 118°16'0 0.0
2018-Feb-13 06:31N 33°44' W 118°16'0 0.0
2018-Feb-13 06:00N 33°44' W 118°16'0 0.0
2018-Feb-13 05:30N 33°44' W 118°16'0 0.0
2018-Feb-13 05:00N 33°44' W 118°16'0 0.0
2018-Feb-13 04:30N 33°44' W 118°16'0 0.0
2018-Feb-13 04:01N 33°44' W 118°16'0 0.0
2018-Feb-13 03:26N 33°44' W 118°16'0 0.0
2018-Feb-13 03:01N 33°44' W 118°16'0 0.0
2018-Feb-13 02:31N 33°44' W 118°16'1 1.3
2018-Feb-13 02:00N 33°44' W 118°16'2 3.8
2018-Feb-13 01:31N 33°46' W 118°15'1 1.1
2018-Feb-13 01:01N 33°46' W 118°15'1 1.7
2018-Feb-13 00:31N 33°45' W 118°16'2 3.1
2018-Feb-13 00:00N 33°44' W 118°16'0 0.0
2018-Feb-12 23:31N 33°44' W 118°16'0 0.0
2018-Feb-12 22:59N 33°44' W 118°16'0 0.0
2018-Feb-12 22:31N 33°44' W 118°16'0 0.0
2018-Feb-12 22:00N 33°44' W 118°16'0 0.0
2018-Feb-12 21:30N 33°44' W 118°16'0 0.0
2018-Feb-12 21:00N 33°44' W 118°16'0 0.0
2018-Feb-12 20:29N 33°44' W 118°16'2 3.8
2018-Feb-12 20:00N 33°43' W 118°14'0 0.1
2018-Feb-12 19:30N 33°43' W 118°14'2 3.8
2018-Feb-12 19:00N 33°44' W 118°16'1 1.2
2018-Feb-12 18:30N 33°44' W 118°16'0 0.0
2018-Feb-12 18:01N 33°44' W 118°16'0 0.0
2018-Feb-12 17:31N 33°44' W 118°16'0 0.9
2018-Feb-12 17:01N 33°43' W 118°16'4 8.9
2018-Feb-12 16:30N 33°44' W 118°11'4 8.7
2018-Feb-12 16:00N 33°44' W 118°06'0 0.5
2018-Feb-12 15:31N 33°44' W 118°06'1 1.8
2018-Feb-12 15:00N 33°44' W 118°07'511.1
2018-Feb-12 14:30N 33°43' W 118°13'2 4.1
2018-Feb-12 14:01N 33°44' W 118°16'0 0.0
2018-Feb-12 13:31N 33°44' W 118°16'0 0.0
2018-Feb-12 13:01N 33°44' W 118°16'0 0.0
2018-Feb-12 12:31N 33°44' W 118°16'0 0.0
2018-Feb-12 12:01N 33°44' W 118°16'0 0.0
2018-Feb-12 11:30N 33°44' W 118°16'0 0.0
2018-Feb-12 11:00N 33°44' W 118°16'0 0.0
2018-Feb-12 10:30N 33°44' W 118°16'0 0.0
2018-Feb-12 10:00N 33°44' W 118°16'0 0.0
2018-Feb-12 09:30N 33°44' W 118°16'0 0.0
2018-Feb-12 09:01N 33°44' W 118°16'0 0.0
2018-Feb-12 08:30N 33°44' W 118°16'0 0.0
2018-Feb-12 08:01N 33°44' W 118°16'0 0.0
2018-Feb-12 07:30N 33°44' W 118°16'0 0.0
2018-Feb-12 07:00N 33°44' W 118°16'0 0.0
2018-Feb-12 06:30N 33°44' W 118°16'0 0.0
2018-Feb-12 06:01N 33°44' W 118°16'0 0.0
2018-Feb-12 05:31N 33°44' W 118°16'0 0.0
2018-Feb-12 05:01N 33°44' W 118°16'0 0.0
2018-Feb-12 04:31N 33°44' W 118°16'0 0.0
2018-Feb-12 04:01N 33°44' W 118°16'0 0.0
2018-Feb-12 03:30N 33°44' W 118°16'0 0.0
2018-Feb-12 03:01N 33°44' W 118°16'0 0.0
2018-Feb-12 02:30N 33°44' W 118°16'0 0.0
2018-Feb-12 02:01N 33°44' W 118°16'0 0.0
2018-Feb-12 01:31N 33°44' W 118°16'0 0.0
2018-Feb-12 01:00N 33°44' W 118°16'0 0.0
2018-Feb-12 00:31N 33°44' W 118°16'0 0.6
2018-Feb-12 00:00N 33°44' W 118°16'2 3.4
2018-Feb-11 23:30N 33°43' W 118°14'2 3.9
2018-Feb-11 23:01N 33°44' W 118°16'0 0.2
2018-Feb-11 22:31N 33°44' W 118°16'0 0.2
2018-Feb-11 22:00N 33°44' W 118°16'2 3.4
2018-Feb-11 21:29N 33°43' W 118°14'2 3.6
2018-Feb-11 21:00N 33°44' W 118°16'0 0.0
2018-Feb-11 20:31N 33°44' W 118°16'0 0.0
2018-Feb-11 20:01N 33°44' W 118°16'0 0.0
2018-Feb-11 19:30N 33°44' W 118°16'0 0.0
2018-Feb-11 19:00N 33°44' W 118°16'0 0.0
2018-Feb-11 18:31N 33°44' W 118°16'0 0.0
2018-Feb-11 18:01N 33°44' W 118°16'0 0.0
2018-Feb-11 17:31N 33°44' W 118°16'0 0.0
2018-Feb-11 17:00N 33°44' W 118°16'0 0.0
2018-Feb-11 16:30N 33°44' W 118°16'2 3.6
2018-Feb-11 16:01N 33°43' W 118°14'1 1.5
2018-Feb-11 15:31N 33°43' W 118°15'1 2.8
2018-Feb-11 15:01N 33°44' W 118°16'0 0.0
2018-Feb-11 14:31N 33°44' W 118°16'1 1.1
2018-Feb-11 14:00N 33°44' W 118°16'2 3.8
2018-Feb-11 13:30N 33°46' W 118°17'0 0.0
2018-Feb-11 13:00N 33°46' W 118°17'2 4.3
2018-Feb-11 12:30N 33°44' W 118°16'1 1.1
2018-Feb-11 12:00N 33°44' W 118°16'0 0.0
2018-Feb-11 11:31N 33°44' W 118°16'0 0.0
2018-Feb-11 11:01N 33°44' W 118°16'0 0.0
2018-Feb-11 10:30N 33°44' W 118°16'0 0.0
2018-Feb-11 10:00N 33°44' W 118°16'0 0.0
2018-Feb-11 09:31N 33°44' W 118°16'0 0.0
2018-Feb-11 09:00N 33°44' W 118°16'0 0.0
2018-Feb-11 08:30N 33°44' W 118°16'0 0.0
2018-Feb-11 08:01N 33°44' W 118°16'0 0.0
2018-Feb-11 07:31N 33°44' W 118°16'0 0.0
2018-Feb-11 07:00N 33°44' W 118°16'0 0.0
2018-Feb-11 06:31N 33°44' W 118°16'0 0.0
2018-Feb-11 06:00N 33°44' W 118°16'0 0.0
2018-Feb-11 05:31N 33°44' W 118°16'0 0.0
2018-Feb-11 05:00N 33°44' W 118°16'0 0.0
2018-Feb-11 04:30N 33°44' W 118°16'0 0.0
2018-Feb-11 04:00N 33°44' W 118°16'0 0.0
2018-Feb-11 03:30N 33°44' W 118°16'0 0.0
2018-Feb-11 03:01N 33°44' W 118°16'0 0.0
2018-Feb-11 02:30N 33°44' W 118°16'0 0.0
2018-Feb-11 02:00N 33°44' W 118°16'0 0.0
2018-Feb-11 01:30N 33°44' W 118°16'0 0.0
2018-Feb-11 01:01N 33°44' W 118°16'0 0.0
2018-Feb-11 00:30N 33°44' W 118°16'0 0.0
2018-Feb-11 00:00N 33°44' W 118°16'0 0.0
2018-Feb-10 23:31N 33°44' W 118°16'0 0.5
2018-Feb-10 23:00N 33°44' W 118°15'0 0.3
2018-Feb-10 22:30N 33°44' W 118°16'1 2.5
2018-Feb-10 22:00N 33°43' W 118°15'1 2.6
2018-Feb-10 21:30N 33°44' W 118°16'0 0.0
2018-Feb-10 21:00N 33°44' W 118°16'0 0.0
2018-Feb-10 20:31N 33°44' W 118°16'0 0.0
2018-Feb-10 20:01N 33°44' W 118°16'0 0.0
2018-Feb-10 19:31N 33°44' W 118°16'0 0.0
2018-Feb-10 19:01N 33°44' W 118°16'0 0.0
2018-Feb-10 18:30N 33°44' W 118°16'0 0.0
2018-Feb-10 18:01N 33°44' W 118°16'0 0.0
2018-Feb-10 17:31N 33°44' W 118°16'0 0.0
2018-Feb-10 17:01N 33°44' W 118°16'0 0.0
2018-Feb-10 16:31N 33°44' W 118°16'1 2.4
2018-Feb-10 16:00N 33°43' W 118°15'4 7.3
2018-Feb-10 15:29N 33°45' W 118°11'1 2.4
2018-Feb-10 15:00N 33°44' W 118°11'1 2.8
2018-Feb-10 14:30N 33°45' W 118°12'1 2.5
2018-Feb-10 13:58N 33°45' W 118°14'1 2.4
2018-Feb-10 13:30N 33°45' W 118°13'1 2.9
2018-Feb-10 13:00N 33°44' W 118°11'3 5.1
2018-Feb-10 12:30N 33°46' W 118°13'0 0.8
2018-Feb-10 12:01N 33°46' W 118°13'2 4.0
2018-Feb-10 11:31N 33°44' W 118°13'2 3.7
2018-Feb-10 11:00N 33°44' W 118°16'0 0.0
2018-Feb-10 10:31N 33°44' W 118°16'0 0.0
2018-Feb-10 10:00N 33°44' W 118°16'0 0.0
2018-Feb-10 09:30N 33°44' W 118°16'0 0.0
2018-Feb-10 09:00N 33°44' W 118°16'0 0.0
2018-Feb-10 08:30N 33°44' W 118°16'0 0.0
2018-Feb-10 08:01N 33°44' W 118°16'0 0.0
2018-Feb-10 07:30N 33°44' W 118°16'0 0.0
2018-Feb-10 07:01N 33°44' W 118°16'0 0.0
2018-Feb-10 06:30N 33°44' W 118°16'0 0.0
2018-Feb-10 06:00N 33°44' W 118°16'0 0.0
2018-Feb-10 05:30N 33°44' W 118°16'0 0.0
2018-Feb-10 05:01N 33°44' W 118°16'0 0.0
2018-Feb-10 04:30N 33°44' W 118°16'0 0.0
2018-Feb-10 04:00N 33°44' W 118°16'0 0.0
2018-Feb-10 03:31N 33°44' W 118°16'  

Dump ship's entire track history